createdAt,value
2022-09-28T00:02:02.004Z,9.60
2022-09-28T00:04:28.571Z,9.60
2022-09-28T00:06:55.146Z,9.60
2022-09-28T00:09:21.783Z,9.60
2022-09-28T00:11:48.499Z,9.60
2022-09-28T00:14:15.194Z,9.70
2022-09-28T00:16:43.753Z,9.70
2022-09-28T00:19:11.971Z,9.70
2022-09-28T00:21:40.049Z,9.70
2022-09-28T00:24:12.558Z,9.70
2022-09-28T00:26:40.982Z,9.70
2022-09-28T00:29:16.390Z,9.70
2022-09-28T00:31:43.187Z,9.70
2022-09-28T00:34:10.132Z,9.70
2022-09-28T00:36:36.691Z,9.70
2022-09-28T00:39:05.636Z,9.60
2022-09-28T00:41:32.324Z,9.60
2022-09-28T00:44:26.839Z,9.60
2022-09-28T00:47:13.670Z,9.50
2022-09-28T00:49:51.973Z,9.50
2022-09-28T00:52:33.354Z,9.50
2022-09-28T00:55:02.557Z,9.50
2022-09-28T00:57:30.440Z,9.50
2022-09-28T00:59:57.820Z,9.40
2022-09-28T01:02:24.586Z,9.40
2022-09-28T01:04:52.083Z,9.50
2022-09-28T01:07:19.162Z,9.40
2022-09-28T01:09:46.155Z,9.30
2022-09-28T01:12:13.002Z,9.30
2022-09-28T01:14:41.146Z,9.20
2022-09-28T01:17:16.017Z,9.30
2022-09-28T01:20:05.398Z,9.30
2022-09-28T01:22:34.682Z,9.20
2022-09-28T01:25:31.366Z,9.20
2022-09-28T01:28:03.327Z,9.30
2022-09-28T01:30:40.187Z,9.30
2022-09-28T01:33:14.227Z,9.30
2022-09-28T01:35:47.714Z,9.30
2022-09-28T01:38:22.425Z,9.20
2022-09-28T01:40:50.436Z,9.20
2022-09-28T01:43:22.291Z,9.20
2022-09-28T01:45:53.067Z,9.20
2022-09-28T01:48:26.459Z,9.30
2022-09-28T01:50:58.120Z,9.30
2022-09-28T01:53:39.013Z,9.30
2022-09-28T01:56:12.483Z,9.20
2022-09-28T01:58:45.239Z,9.20
2022-09-28T02:01:21.142Z,9.20
2022-09-28T02:04:05.343Z,9.20
2022-09-28T02:06:38.769Z,9.20
2022-09-28T02:09:16.628Z,9.20
2022-09-28T02:11:49.341Z,9.20
2022-09-28T02:14:18.057Z,9.20
2022-09-28T02:16:47.057Z,9.10
2022-09-28T02:19:19.593Z,9.10
2022-09-28T02:22:10.448Z,9.10
2022-09-28T02:25:08.989Z,9.10
2022-09-28T02:27:51.506Z,9.00
2022-09-28T02:30:18.226Z,9.10
2022-09-28T02:32:50.473Z,9.10
2022-09-28T02:35:18.705Z,9.10
2022-09-28T02:37:46.016Z,9.00
2022-09-28T02:40:21.462Z,9.00
2022-09-28T02:43:21.336Z,8.90
2022-09-28T02:46:25.531Z,9.00
2022-09-28T02:49:22.522Z,9.10
2022-09-28T02:52:30.527Z,9.20
2022-09-28T02:55:24.196Z,9.20
2022-09-28T02:58:35.370Z,9.20
2022-09-28T03:01:31.197Z,9.20
2022-09-28T03:04:06.176Z,9.30
2022-09-28T03:06:46.031Z,9.30
2022-09-28T03:09:25.683Z,9.40
2022-09-28T03:11:58.695Z,9.40
2022-09-28T03:14:25.264Z,9.40
2022-09-28T03:16:51.817Z,9.40
2022-09-28T03:19:22.982Z,9.40
2022-09-28T03:21:49.796Z,9.40
2022-09-28T03:24:16.318Z,9.40
2022-09-28T03:26:42.836Z,9.40
2022-09-28T03:29:09.357Z,9.50
2022-09-28T03:31:35.953Z,9.50
2022-09-28T03:34:02.744Z,9.40
2022-09-28T03:36:29.273Z,9.50
2022-09-28T03:38:56.235Z,9.40
2022-09-28T03:41:24.194Z,9.50
2022-09-28T03:43:50.738Z,9.50
2022-09-28T03:46:17.473Z,9.50
2022-09-28T03:48:44.146Z,9.40
2022-09-28T03:51:11.621Z,9.40
2022-09-28T03:53:38.907Z,9.40
2022-09-28T03:56:15.694Z,9.40
2022-09-28T03:58:42.390Z,9.40
2022-09-28T04:01:16.489Z,9.40
2022-09-28T04:03:43.999Z,9.40
2022-09-28T04:06:10.926Z,9.40
2022-09-28T04:08:37.554Z,9.40
2022-09-28T04:11:04.238Z,9.40
2022-09-28T04:13:31.162Z,9.30
2022-09-28T04:16:00.128Z,9.30
2022-09-28T04:18:26.937Z,9.30
2022-09-28T04:21:06.623Z,9.30
2022-09-28T04:23:35.302Z,9.30
2022-09-28T04:26:03.912Z,9.30
2022-09-28T04:28:49.219Z,9.30
2022-09-28T04:31:18.868Z,9.30
2022-09-28T04:33:45.906Z,9.30
2022-09-28T04:36:12.530Z,9.30
2022-09-28T04:38:52.855Z,9.30
2022-09-28T04:41:22.108Z,9.30
2022-09-28T04:43:48.981Z,9.30
2022-09-28T04:46:15.835Z,9.30
2022-09-28T04:48:42.402Z,9.40
2022-09-28T04:51:08.979Z,9.40
2022-09-28T04:53:35.551Z,9.40
2022-09-28T04:56:08.057Z,9.40
2022-09-28T04:58:35.543Z,9.40
2022-09-28T05:01:05.898Z,9.40
2022-09-28T05:03:33.166Z,9.40
2022-09-28T05:05:59.806Z,9.40
2022-09-28T05:08:27.121Z,9.30
2022-09-28T05:10:59.561Z,9.20
2022-09-28T05:13:27.697Z,9.20
2022-09-28T05:15:59.663Z,9.20
2022-09-28T05:18:28.439Z,9.10
2022-09-28T05:20:54.960Z,9.10
2022-09-28T05:23:21.506Z,9.20
2022-09-28T05:25:48.092Z,9.20
2022-09-28T05:28:14.679Z,9.20
2022-09-28T05:30:41.232Z,9.20
2022-09-28T05:33:08.894Z,9.20
2022-09-28T05:35:36.116Z,9.30
2022-09-28T05:38:04.622Z,9.30
2022-09-28T05:40:31.915Z,9.30
2022-09-28T05:43:02.086Z,9.30
2022-09-28T05:45:29.820Z,9.30
2022-09-28T05:47:56.649Z,9.20
2022-09-28T05:50:23.428Z,9.20
2022-09-28T05:53:00.698Z,9.20
2022-09-28T05:55:27.681Z,9.20
2022-09-28T05:57:58.086Z,9.20
2022-09-28T06:00:24.657Z,9.20
2022-09-28T06:02:59.890Z,9.20
2022-09-28T06:05:27.922Z,9.20
2022-09-28T06:07:58.993Z,9.20
2022-09-28T06:10:27.836Z,9.20
2022-09-28T06:12:55.930Z,9.10
2022-09-28T06:15:27.611Z,9.20
2022-09-28T06:18:03.034Z,9.20
2022-09-28T06:20:32.779Z,9.20
2022-09-28T06:22:59.374Z,9.20
2022-09-28T06:25:27.615Z,9.30
2022-09-28T06:27:55.898Z,9.30
2022-09-28T06:30:24.253Z,9.30
2022-09-28T06:32:53.696Z,9.30
2022-09-28T06:35:21.328Z,9.30
2022-09-28T06:37:48.014Z,9.30
2022-09-28T06:40:14.659Z,9.30
2022-09-28T06:42:41.410Z,9.30
2022-09-28T06:45:08.532Z,9.20
2022-09-28T06:47:35.180Z,9.20
2022-09-28T06:50:01.764Z,9.30
2022-09-28T06:52:28.282Z,9.30
2022-09-28T06:54:54.897Z,9.40
2022-09-28T06:57:21.453Z,9.40
2022-09-28T06:59:48.073Z,9.40
2022-09-28T07:02:14.732Z,9.40
2022-09-28T07:04:42.658Z,9.40
2022-09-28T07:07:10.616Z,9.40
2022-09-28T07:09:42.648Z,9.50
2022-09-28T07:12:13.350Z,9.50
2022-09-28T07:14:47.670Z,9.50
2022-09-28T07:17:15.135Z,9.50
2022-09-28T07:19:42.258Z,9.50
2022-09-28T07:22:08.776Z,9.50
2022-09-28T07:24:35.353Z,9.50
2022-09-28T07:27:05.495Z,9.50
2022-09-28T07:29:32.009Z,9.50
2022-09-28T07:31:58.513Z,9.50
2022-09-28T07:34:25.177Z,9.60
2022-09-28T07:36:57.290Z,9.60
2022-09-28T07:39:24.107Z,9.60
2022-09-28T07:41:50.671Z,9.70
2022-09-28T07:44:18.940Z,9.70
2022-09-28T07:46:46.520Z,9.70
2022-09-28T07:49:15.458Z,9.60
2022-09-28T07:51:44.733Z,9.60
2022-09-28T07:56:38.198Z,9.50
2022-09-28T07:59:04.935Z,9.60
2022-09-28T08:01:31.556Z,9.60
2022-09-28T08:03:58.303Z,9.60
2022-09-28T08:06:25.133Z,9.50
2022-09-28T08:08:56.114Z,9.50
2022-09-28T08:11:22.697Z,9.50
2022-09-28T08:13:49.513Z,9.50
2022-09-28T08:16:16.165Z,9.50
2022-09-28T08:18:42.876Z,9.50
2022-09-28T08:21:29.396Z,9.50
2022-09-28T08:23:56.435Z,9.50
2022-09-28T08:26:23.029Z,9.40
2022-09-28T08:28:50.082Z,9.50
2022-09-28T08:31:16.678Z,9.50
2022-09-28T08:33:43.275Z,9.50
2022-09-28T08:36:10.293Z,9.60
2022-09-28T08:38:36.849Z,9.70
2022-09-28T08:41:19.305Z,9.80
2022-09-28T08:43:51.781Z,9.90
2022-09-28T08:46:25.041Z,10.00
2022-09-28T08:49:24.112Z,10.00
2022-09-28T08:52:02.874Z,10.00
2022-09-28T08:54:36.067Z,10.00
2022-09-28T08:57:27.290Z,10.10
2022-09-28T08:59:59.655Z,10.20
2022-09-28T09:02:34.563Z,10.20
2022-09-28T09:05:06.053Z,10.30
2022-09-28T09:07:49.184Z,10.30
2022-09-28T09:10:45.983Z,10.40
2022-09-28T09:13:31.308Z,10.40
2022-09-28T09:16:11.259Z,10.50
2022-09-28T09:18:42.813Z,10.50
2022-09-28T09:21:19.452Z,10.60
2022-09-28T09:23:57.382Z,10.60
2022-09-28T09:26:42.876Z,10.60
2022-09-28T09:29:32.806Z,10.60
2022-09-28T09:32:02.952Z,10.70
2022-09-28T09:34:55.223Z,9.70
2022-09-28T09:37:49.609Z,10.70
2022-09-28T09:41:00.664Z,10.80
2022-09-28T09:43:50.078Z,10.90
2022-09-28T09:46:41.478Z,10.90
2022-09-28T09:49:17.916Z,10.90
2022-09-28T09:52:10.018Z,10.90
2022-09-28T09:54:51.134Z,11.00
2022-09-28T09:57:24.897Z,10.90
2022-09-28T09:59:52.043Z,10.80
2022-09-28T10:02:31.776Z,10.80
2022-09-28T10:05:10.720Z,10.70
2022-09-28T10:07:53.531Z,10.60
2022-09-28T10:10:25.147Z,10.60
2022-09-28T10:12:52.581Z,10.60
2022-09-28T10:15:24.692Z,10.60
2022-09-28T10:17:52.285Z,12.80
2022-09-28T10:20:19.798Z,10.70
2022-09-28T10:22:47.005Z,10.70
2022-09-28T10:25:14.657Z,10.80
2022-09-28T10:27:52.437Z,10.80
2022-09-28T10:30:25.299Z,10.80
2022-09-28T10:32:55.092Z,10.80
2022-09-28T10:35:31.144Z,10.80
2022-09-28T10:38:06.964Z,10.80
2022-09-28T10:40:55.886Z,10.80
2022-09-28T10:43:33.493Z,10.90
2022-09-28T10:46:06.084Z,10.90
2022-09-28T10:49:02.559Z,11.10
2022-09-28T10:51:43.975Z,11.10
2022-09-28T10:54:17.000Z,11.20
2022-09-28T10:56:44.401Z,11.10
2022-09-28T10:59:29.372Z,11.00
2022-09-28T11:01:59.105Z,11.00
2022-09-28T11:04:34.471Z,11.00
2022-09-28T11:07:02.214Z,11.00
2022-09-28T11:09:34.726Z,11.10
2022-09-28T11:12:04.500Z,11.20
2022-09-28T11:14:42.768Z,11.20
2022-09-28T11:17:31.507Z,11.30
2022-09-28T11:20:26.748Z,11.30
2022-09-28T11:22:55.651Z,11.20
2022-09-28T11:25:25.895Z,11.10
2022-09-28T11:27:52.414Z,11.10
2022-09-28T11:30:27.070Z,11.00
2022-09-28T11:33:02.709Z,11.00
2022-09-28T11:35:43.547Z,10.90
2022-09-28T11:38:19.174Z,10.90
2022-09-28T11:40:54.486Z,11.00
2022-09-28T11:43:51.535Z,11.00
2022-09-28T11:46:32.207Z,11.00
2022-09-28T11:49:21.762Z,11.00
2022-09-28T11:51:50.509Z,11.00
2022-09-28T11:54:40.436Z,11.00
2022-09-28T11:57:15.371Z,11.00
2022-09-28T12:00:01.607Z,11.10
2022-09-28T12:02:45.208Z,11.10
2022-09-28T12:05:22.053Z,11.10
2022-09-28T12:07:59.953Z,11.20
2022-09-28T12:10:59.930Z,11.10
2022-09-28T12:13:29.201Z,11.10
2022-09-28T12:16:27.611Z,11.20
2022-09-28T12:19:25.181Z,11.20
2022-09-28T12:21:59.848Z,11.20
2022-09-28T12:24:48.290Z,11.20
2022-09-28T12:27:24.142Z,11.30
2022-09-28T12:30:14.464Z,11.30
2022-09-28T12:32:56.006Z,11.30
2022-09-28T12:35:49.725Z,11.40
2022-09-28T12:39:14.822Z,11.50
2022-09-28T12:41:49.978Z,11.50
2022-09-28T12:44:28.248Z,11.60
2022-09-28T12:47:19.109Z,11.60
2022-09-28T12:50:37.522Z,11.60
2022-09-28T12:53:30.071Z,11.70
2022-09-28T12:56:09.184Z,11.70
2022-09-28T12:58:44.690Z,11.60
2022-09-28T13:01:32.181Z,11.60
2022-09-28T13:04:20.446Z,11.60
2022-09-28T13:07:06.377Z,11.60
2022-09-28T13:09:57.084Z,11.60
2022-09-28T13:12:38.707Z,11.60
2022-09-28T13:15:18.095Z,11.50
2022-09-28T13:17:57.838Z,11.60
2022-09-28T13:20:44.118Z,11.60
2022-09-28T13:23:40.332Z,11.60
2022-09-28T13:26:31.536Z,11.60
2022-09-28T13:29:12.562Z,11.70
2022-09-28T13:31:53.036Z,11.70
2022-09-28T13:34:25.002Z,11.80
2022-09-28T13:37:21.686Z,11.70
2022-09-28T13:39:53.014Z,11.80
2022-09-28T13:42:44.924Z,11.70
2022-09-28T13:45:20.602Z,11.80
2022-09-28T13:48:20.453Z,11.80
2022-09-28T13:51:09.086Z,11.80
2022-09-28T13:54:02.642Z,11.90
2022-09-28T13:56:51.095Z,11.90
2022-09-28T13:59:20.635Z,11.90
2022-09-28T14:02:09.444Z,11.90
2022-09-28T14:05:00.241Z,12.00
2022-09-28T14:07:59.379Z,12.10
2022-09-28T14:10:51.610Z,12.10
2022-09-28T14:13:42.909Z,12.10
2022-09-28T14:16:18.538Z,12.00
2022-09-28T14:18:56.843Z,12.00
2022-09-28T14:21:43.839Z,12.10
2022-09-28T14:24:41.804Z,12.10
2022-09-28T14:27:37.798Z,12.10
2022-09-28T14:30:16.920Z,12.20
2022-09-28T14:32:52.706Z,12.30
2022-09-28T14:35:39.086Z,12.20
2022-09-28T14:38:35.113Z,12.20
2022-09-28T14:41:17.668Z,12.30
2022-09-28T14:43:44.143Z,12.30
2022-09-28T14:46:20.003Z,12.30
2022-09-28T14:48:53.605Z,12.30
2022-09-28T14:51:29.992Z,12.30
2022-09-28T14:54:10.414Z,12.20
2022-09-28T14:56:57.146Z,12.20
2022-09-28T14:59:25.218Z,12.10
2022-09-28T15:02:08.734Z,12.10
2022-09-28T15:04:40.007Z,12.10
2022-09-28T15:07:06.607Z,12.10
2022-09-28T15:09:35.530Z,12.10
2022-09-28T15:12:04.122Z,12.10
2022-09-28T15:14:33.060Z,12.00
2022-09-28T15:17:02.821Z,12.00
2022-09-28T15:19:45.158Z,12.00
2022-09-28T15:22:20.042Z,12.00
2022-09-28T15:25:01.373Z,11.90
2022-09-28T15:27:37.414Z,11.80
2022-09-28T15:30:18.493Z,11.80
2022-09-28T15:32:45.032Z,11.80
2022-09-28T15:35:17.037Z,11.80
2022-09-28T15:37:44.831Z,11.70
2022-09-28T15:40:16.811Z,11.70
2022-09-28T15:42:45.209Z,11.70
2022-09-28T15:45:35.137Z,11.70
2022-09-28T15:48:18.260Z,11.60
2022-09-28T15:51:06.100Z,11.60
2022-09-28T15:53:33.371Z,11.60
2022-09-28T15:56:09.476Z,11.70
2022-09-28T15:58:37.710Z,11.70
2022-09-28T16:01:27.268Z,11.80
2022-09-28T16:03:54.145Z,11.90
2022-09-28T16:06:21.227Z,11.90
2022-09-28T16:08:51.238Z,11.90
2022-09-28T16:11:28.625Z,11.90
2022-09-28T16:14:06.707Z,11.90
2022-09-28T16:16:39.603Z,11.90
2022-09-28T16:19:24.043Z,12.00
2022-09-28T16:21:55.772Z,11.90
2022-09-28T16:24:30.333Z,11.90
2022-09-28T16:27:06.809Z,11.80
2022-09-28T16:29:39.578Z,11.80
2022-09-28T16:32:26.446Z,11.90
2022-09-28T16:35:11.399Z,11.90
2022-09-28T16:37:42.511Z,11.90
2022-09-28T16:40:10.207Z,11.90
2022-09-28T16:42:37.739Z,11.90
2022-09-28T16:45:05.308Z,11.80
2022-09-28T16:47:34.028Z,11.70
2022-09-28T16:50:02.222Z,11.70
2022-09-28T16:52:47.477Z,11.60
2022-09-28T16:58:04.654Z,11.60
2022-09-28T17:00:32.352Z,11.60
2022-09-28T17:02:59.495Z,11.60
2022-09-28T17:05:26.153Z,11.60
2022-09-28T17:08:03.932Z,11.60
2022-09-28T17:11:09.885Z,11.60
2022-09-28T17:13:33.863Z,11.60
2022-09-28T17:16:12.499Z,11.60
2022-09-28T17:18:39.681Z,11.50
2022-09-28T17:21:10.002Z,11.50
2022-09-28T17:23:36.632Z,11.40
2022-09-28T17:26:04.502Z,11.40
2022-09-28T17:28:37.215Z,11.40
2022-09-28T17:31:04.781Z,11.40
2022-09-28T17:33:31.564Z,11.30
2022-09-28T17:36:01.183Z,11.30
2022-09-28T17:38:28.278Z,11.30
2022-09-28T17:40:54.911Z,11.20
2022-09-28T17:43:22.146Z,11.20
2022-09-28T17:45:49.358Z,11.20
2022-09-28T17:48:18.425Z,11.20
2022-09-28T17:50:47.271Z,11.10
2022-09-28T17:53:14.328Z,11.10
2022-09-28T17:55:42.871Z,11.00
2022-09-28T17:58:19.170Z,11.00
2022-09-28T18:00:47.178Z,10.90
2022-09-28T18:03:16.955Z,10.90
2022-09-28T18:05:44.794Z,10.80
2022-09-28T18:08:14.135Z,10.80
2022-09-28T18:10:40.720Z,10.80
2022-09-28T18:13:07.612Z,10.70
2022-09-28T18:15:34.404Z,10.60
2022-09-28T18:18:01.314Z,10.50
2022-09-28T18:20:28.021Z,10.50
2022-09-28T18:22:54.606Z,10.40
2022-09-28T18:25:21.185Z,10.10
2022-09-28T18:27:47.958Z,10.40
2022-09-28T18:30:14.585Z,10.30
2022-09-28T18:32:41.265Z,10.30
2022-09-28T18:35:10.134Z,10.30
2022-09-28T18:37:37.829Z,12.50
2022-09-28T18:40:04.964Z,10.20
2022-09-28T18:42:32.133Z,10.30
2022-09-28T18:44:58.782Z,10.30
2022-09-28T18:47:27.153Z,10.20
2022-09-28T18:49:53.746Z,10.20
2022-09-28T18:52:20.328Z,8.70
2022-09-28T18:54:46.892Z,10.20
2022-09-28T18:57:13.631Z,10.10
2022-09-28T18:59:40.194Z,10.10
2022-09-28T19:02:07.119Z,10.10
2022-09-28T19:04:33.814Z,10.10
2022-09-28T19:07:00.473Z,10.00
2022-09-28T19:09:28.083Z,10.00
2022-09-28T19:11:54.730Z,10.00
2022-09-28T19:14:21.507Z,9.90
2022-09-28T19:16:48.209Z,9.90
2022-09-28T19:19:17.930Z,9.80
2022-09-28T19:21:44.852Z,10.00
2022-09-28T19:24:16.768Z,10.00
2022-09-28T19:26:44.041Z,10.00
2022-09-28T19:29:10.942Z,10.00
2022-09-28T19:31:37.852Z,10.00
2022-09-28T19:34:05.709Z,10.00
2022-09-28T19:36:33.312Z,10.00
2022-09-28T19:39:04.068Z,9.90
2022-09-28T19:41:50.917Z,9.90
2022-09-28T19:44:27.103Z,9.90
2022-09-28T19:46:57.956Z,9.80
2022-09-28T19:49:27.269Z,9.80
2022-09-28T19:52:14.182Z,9.80
2022-09-28T19:54:55.627Z,9.80
2022-09-28T19:57:27.711Z,9.80
2022-09-28T20:00:00.811Z,9.70
2022-09-28T20:02:29.015Z,9.70
2022-09-28T20:04:55.737Z,9.70
2022-09-28T20:07:22.355Z,9.60
2022-09-28T20:09:48.953Z,9.60
2022-09-28T20:12:15.583Z,9.60
2022-09-28T20:14:42.159Z,9.50
2022-09-28T20:17:09.345Z,9.50
2022-09-28T20:19:36.172Z,9.50
2022-09-28T20:22:03.421Z,9.50
2022-09-28T20:24:31.510Z,9.50
2022-09-28T20:26:58.592Z,9.50
2022-09-28T20:29:25.492Z,9.50
2022-09-28T20:31:52.421Z,9.50
2022-09-28T20:34:19.171Z,9.40
2022-09-28T20:36:45.889Z,9.40
2022-09-28T20:39:13.007Z,9.40
2022-09-28T20:41:40.243Z,9.40
2022-09-28T20:44:07.147Z,9.40
2022-09-28T20:46:35.222Z,9.40
2022-09-28T20:49:02.211Z,9.40
2022-09-28T20:51:28.849Z,9.30
2022-09-28T20:53:57.687Z,9.30
2022-09-28T20:56:27.022Z,9.30
2022-09-28T20:58:54.566Z,9.30
2022-09-28T21:01:30.040Z,9.20
2022-09-28T21:03:59.109Z,9.20
2022-09-28T21:06:30.881Z,9.20
2022-09-28T21:08:57.654Z,9.20
2022-09-28T21:11:26.850Z,9.20
2022-09-28T21:13:55.608Z,9.10
2022-09-28T21:16:22.265Z,9.10
2022-09-28T21:18:49.054Z,9.10
2022-09-28T21:21:18.146Z,9.00
2022-09-28T21:23:45.312Z,9.00
2022-09-28T21:26:24.350Z,9.00
2022-09-28T21:28:54.522Z,9.00
2022-09-28T21:31:27.710Z,9.00
2022-09-28T21:33:55.669Z,9.00
2022-09-28T21:36:22.262Z,9.00
2022-09-28T21:38:49.279Z,8.90
2022-09-28T21:41:16.362Z,8.90
2022-09-28T21:43:42.958Z,8.90
2022-09-28T21:46:10.410Z,8.80
2022-09-28T21:48:37.070Z,8.80
2022-09-28T21:51:06.360Z,8.80
2022-09-28T21:53:34.981Z,8.80
2022-09-28T21:56:02.797Z,8.70
2022-09-28T21:58:31.459Z,8.70
2022-09-28T22:01:07.171Z,8.70
2022-09-28T22:03:35.312Z,8.70
2022-09-28T22:06:03.611Z,8.70
2022-09-28T22:08:30.423Z,8.60
2022-09-28T22:11:00.636Z,8.60
2022-09-28T22:13:32.874Z,8.60
2022-09-28T22:16:00.150Z,8.50
2022-09-28T22:18:28.325Z,8.40
2022-09-28T22:21:02.986Z,8.30
2022-09-28T22:23:30.320Z,8.30
2022-09-28T22:26:04.172Z,8.30
2022-09-28T22:28:31.071Z,8.30
2022-09-28T22:30:57.769Z,8.30
2022-09-28T22:33:24.725Z,8.20
2022-09-28T22:35:52.011Z,8.20
2022-09-28T22:38:19.765Z,8.20
2022-09-28T22:40:50.033Z,8.20
2022-09-28T22:43:17.137Z,8.20
2022-09-28T22:45:43.842Z,8.20
2022-09-28T22:48:10.699Z,8.20
2022-09-28T22:50:38.840Z,8.20
2022-09-28T22:53:06.434Z,8.20
2022-09-28T22:55:33.911Z,8.20
2022-09-28T22:58:03.460Z,8.20
2022-09-28T23:00:30.469Z,8.20
2022-09-28T23:02:57.186Z,8.20
2022-09-28T23:05:24.022Z,8.20
2022-09-28T23:07:50.621Z,8.20
2022-09-28T23:10:17.390Z,8.30
2022-09-28T23:12:43.945Z,8.30
2022-09-28T23:15:10.757Z,8.30
2022-09-28T23:17:37.333Z,8.30
2022-09-28T23:20:04.417Z,8.30
2022-09-28T23:22:31.095Z,8.40
2022-09-28T23:24:57.702Z,8.40
2022-09-28T23:27:24.328Z,8.40
2022-09-28T23:29:53.694Z,8.30
2022-09-28T23:32:20.436Z,8.30
2022-09-28T23:34:46.999Z,8.30
2022-09-28T23:37:13.550Z,8.30
2022-09-28T23:39:40.129Z,8.40
2022-09-28T23:42:06.692Z,8.40
2022-09-28T23:44:33.252Z,8.40
2022-09-28T23:47:00.143Z,8.40
2022-09-28T23:49:26.738Z,8.50
2022-09-28T23:51:53.822Z,8.50
2022-09-28T23:54:20.399Z,8.50
2022-09-28T23:56:47.009Z,8.50
2022-09-28T23:59:13.637Z,8.50
